CheckWX is a tool to help pilots better visualize weather data.  It is not intended as a substitute for an official pre-flight weather briefing.

05:59:09 UTC

KTOI TAF
Troy Municipal at N Kenneth Campbell Field Airport
Troy, Alabama, USA
KTOI 240536Z 2406/2506 00000KT P6SM SCT150 FM241000 00000KT 4SM BR SCT150 FM241300 11006KT P6SM SCT050 PROB30 2418/2424 4SM TSRA BR OVC050CB

May-24@
06:00 UTC

May-24 @ 06:00 UTC

May-24@
10:00 UTC

May-24 @ 10:00 UTC

TAF KTOI 240536Z 2406/2506 00000KT P6SM SCT150

Expired

Cloud Levels
  • Scattered at 15,000' AGL

May-24@
10:00 UTC

May-24 @ 10:00 UTC

May-24@
13:00 UTC

May-24 @ 13:00 UTC

FM241000 00000KT 4SM BR SCT150

Expired

Conditions
Mist
Cloud Levels
  • Scattered at 15,000' AGL

May-24@
13:00 UTC

May-24 @ 13:00 UTC

May-25@
06:00 UTC

May-25 @ 06:00 UTC

FM241300 11006KT P6SM SCT050

From

From Standard forecast or significant change

Wind
  • 110° at 6 KTS
Cloud Levels
  • Scattered at 5,000' AGL

May-24@
18:00 UTC

May-24 @ 18:00 UTC

May-25@
00:00 UTC

May-25 @ 00:00 UTC

PROB30 2418/2424 4SM TSRA BR OVC050CB

Expired

Conditions
Thunderstorm, Rain, Mist
Cloud Levels
  • Overcast at 5,000' AGL